createdAt,value
2023-05-05T00:01:03.062Z,16.95
2023-05-05T00:02:07.056Z,17.01
2023-05-05T00:03:31.721Z,17.02
2023-05-05T00:04:55.054Z,17.02
2023-05-05T00:05:58.207Z,17.03
2023-05-05T00:07:01.769Z,17.03
2023-05-05T00:08:04.330Z,17.05
2023-05-05T00:09:08.420Z,17.06
2023-05-05T00:10:11.207Z,17.08
2023-05-05T00:11:15.124Z,17.11
2023-05-05T00:12:17.642Z,17.12
2023-05-05T00:13:22.176Z,17.19
2023-05-05T00:14:24.901Z,17.24
2023-05-05T00:15:28.574Z,17.30
2023-05-05T00:16:31.074Z,17.28
2023-05-05T00:17:34.486Z,17.23
2023-05-05T00:18:38.529Z,17.16
2023-05-05T00:19:42.433Z,17.15
2023-05-05T00:20:46.886Z,17.13
2023-05-05T00:21:50.321Z,17.11
2023-05-05T00:22:52.743Z,17.12
2023-05-05T00:23:56.175Z,17.09
2023-05-05T00:24:59.039Z,17.10
2023-05-05T00:26:02.285Z,17.12
2023-05-05T00:27:04.822Z,17.15
2023-05-05T00:28:08.138Z,17.21
2023-05-05T00:29:10.597Z,17.27
2023-05-05T00:30:14.952Z,17.37
2023-05-05T00:31:17.343Z,17.45
2023-05-05T00:32:20.762Z,17.48
2023-05-05T00:33:23.626Z,17.50
2023-05-05T00:34:28.290Z,17.51
2023-05-05T00:35:31.110Z,17.54
2023-05-05T00:36:34.452Z,17.52
2023-05-05T00:37:37.580Z,17.52
2023-05-05T00:38:40.865Z,17.56
2023-05-05T00:39:44.790Z,17.60
2023-05-05T00:40:48.530Z,17.64
2023-05-05T00:41:51.062Z,17.67
2023-05-05T00:42:54.407Z,17.69
2023-05-05T00:43:56.731Z,17.69
2023-05-05T00:45:00.402Z,17.69
2023-05-05T00:46:09.835Z,17.70
2023-05-05T00:47:16.128Z,17.70
2023-05-05T00:48:19.789Z,17.68
2023-05-05T00:49:23.252Z,17.66
2023-05-05T00:50:30.319Z,17.60
2023-05-05T00:51:34.176Z,17.53
2023-05-05T00:52:36.889Z,17.46
2023-05-05T00:53:43.078Z,17.39
2023-05-05T00:54:45.918Z,17.30
2023-05-05T00:55:49.377Z,17.23
2023-05-05T00:56:52.106Z,17.19
2023-05-05T00:57:55.640Z,17.15
2023-05-05T00:58:59.235Z,17.10
2023-05-05T01:00:04.052Z,17.01
2023-05-05T01:01:07.903Z,16.91
2023-05-05T01:02:11.448Z,16.81
2023-05-05T01:03:15.529Z,16.73
2023-05-05T01:04:18.977Z,16.64
2023-05-05T01:05:23.821Z,16.54
2023-05-05T01:06:43.109Z,16.47
2023-05-05T01:07:58.816Z,16.37
2023-05-05T01:09:10.705Z,16.29
2023-05-05T01:10:23.434Z,16.25
2023-05-05T01:11:35.708Z,16.19
2023-05-05T01:12:46.351Z,16.15
2023-05-05T01:13:58.108Z,16.11
2023-05-05T01:15:07.557Z,16.07
2023-05-05T01:16:16.547Z,16.03
2023-05-05T01:17:22.117Z,16.01
2023-05-05T01:18:33.523Z,16.01
2023-05-05T01:19:54.140Z,15.98
2023-05-05T01:21:03.280Z,15.90
2023-05-05T01:22:12.324Z,15.86
2023-05-05T01:23:24.923Z,15.82
2023-05-05T01:24:44.326Z,15.79
2023-05-05T01:26:09.901Z,15.82
2023-05-05T01:27:30.607Z,15.91
2023-05-05T01:28:49.774Z,16.01
2023-05-05T01:30:05.627Z,16.12
2023-05-05T01:31:27.426Z,16.20
2023-05-05T01:32:36.191Z,16.22
2023-05-05T01:33:47.212Z,16.25
2023-05-05T01:34:56.451Z,16.28
2023-05-05T01:36:08.708Z,16.29
2023-05-05T01:37:18.603Z,16.27
2023-05-05T01:38:26.372Z,16.31
2023-05-05T01:39:33.682Z,16.37
2023-05-05T01:40:43.681Z,16.42
2023-05-05T01:41:49.242Z,16.46
2023-05-05T01:42:54.118Z,16.49
2023-05-05T01:44:00.429Z,16.49
2023-05-05T01:45:08.257Z,16.48
2023-05-05T01:46:12.297Z,16.46
2023-05-05T01:47:19.735Z,16.45
2023-05-05T01:48:24.961Z,16.49
2023-05-05T01:49:29.149Z,16.54
2023-05-05T01:50:32.729Z,16.59
2023-05-05T01:51:37.155Z,16.59
2023-05-05T01:52:41.633Z,16.62
2023-05-05T01:53:47.258Z,16.64
2023-05-05T01:54:51.089Z,16.65
2023-05-05T01:55:55.870Z,16.66
2023-05-05T01:56:59.778Z,16.67
2023-05-05T01:58:04.674Z,16.67
2023-05-05T01:59:07.932Z,16.64
2023-05-05T02:00:12.814Z,16.64
2023-05-05T02:01:25.718Z,16.62
2023-05-05T02:02:30.537Z,16.62
2023-05-05T02:04:44.797Z,16.59
2023-05-05T02:05:49.316Z,16.58
2023-05-05T02:06:54.600Z,16.57
2023-05-05T02:07:58.825Z,16.57
2023-05-05T02:09:03.738Z,16.55
2023-05-05T02:10:08.443Z,16.55
2023-05-05T02:11:14.224Z,16.56
2023-05-05T02:12:20.465Z,16.55
2023-05-05T02:13:25.713Z,16.54
2023-05-05T02:14:30.954Z,16.55
2023-05-05T02:15:35.477Z,16.56
2023-05-05T02:16:41.412Z,16.57
2023-05-05T02:17:45.375Z,16.61
2023-05-05T02:18:50.850Z,16.64
2023-05-05T02:19:54.953Z,16.71
2023-05-05T02:20:58.217Z,16.76
2023-05-05T02:22:00.917Z,16.81
2023-05-05T02:23:05.769Z,16.84
2023-05-05T02:24:08.728Z,16.86
2023-05-05T02:25:12.470Z,16.86
2023-05-05T02:26:17.390Z,16.88
2023-05-05T02:27:24.621Z,16.89
2023-05-05T02:28:39.321Z,16.91
2023-05-05T02:29:48.064Z,16.91
2023-05-05T02:30:57.646Z,16.92
2023-05-05T02:32:04.861Z,16.92
2023-05-05T02:33:10.367Z,16.92
2023-05-05T02:34:22.589Z,16.93
2023-05-05T02:35:31.998Z,16.91
2023-05-05T02:36:40.867Z,16.90
2023-05-05T02:37:48.575Z,16.91
2023-05-05T02:38:57.141Z,16.89
2023-05-05T02:40:02.536Z,16.82
2023-05-05T02:41:07.286Z,16.79
2023-05-05T02:42:13.619Z,16.74
2023-05-05T02:43:20.720Z,16.71
2023-05-05T02:44:24.950Z,16.68
2023-05-05T02:45:29.691Z,16.64
2023-05-05T02:46:32.778Z,16.60
2023-05-05T02:47:37.275Z,16.58
2023-05-05T02:48:40.417Z,16.56
2023-05-05T02:49:45.582Z,16.59
2023-05-05T02:50:47.928Z,16.59
2023-05-05T02:51:51.654Z,16.56
2023-05-05T02:52:54.047Z,16.54
2023-05-05T02:53:57.841Z,16.53
2023-05-05T02:55:01.578Z,16.54
2023-05-05T02:56:12.341Z,16.52
2023-05-05T02:57:18.930Z,16.52
2023-05-05T02:58:30.707Z,16.53
2023-05-05T02:59:40.148Z,16.55
2023-05-05T03:00:58.961Z,16.58
2023-05-05T03:02:23.555Z,16.59
2023-05-05T03:03:40.258Z,16.63
2023-05-05T03:04:54.323Z,16.65
2023-05-05T03:06:05.422Z,16.71
2023-05-05T03:07:14.411Z,16.74
2023-05-05T03:08:18.728Z,16.77
2023-05-05T03:09:27.622Z,16.81
2023-05-05T03:10:35.356Z,16.82
2023-05-05T03:11:45.718Z,16.87
2023-05-05T03:13:01.574Z,16.90
2023-05-05T03:14:10.420Z,16.90
2023-05-05T03:15:13.937Z,16.89
2023-05-05T03:16:21.294Z,16.91
2023-05-05T03:17:25.303Z,16.92
2023-05-05T03:18:30.863Z,16.91
2023-05-05T03:19:34.951Z,16.90
2023-05-05T03:20:41.760Z,16.93
2023-05-05T03:21:44.320Z,16.93
2023-05-05T03:22:48.748Z,16.93
2023-05-05T03:23:51.390Z,16.92
2023-05-05T03:24:54.898Z,16.92
2023-05-05T03:25:57.334Z,16.90
2023-05-05T03:27:00.621Z,16.90
2023-05-05T03:28:02.976Z,16.89
2023-05-05T03:29:06.856Z,16.88
2023-05-05T03:30:10.518Z,16.85
2023-05-05T03:31:14.884Z,16.84
2023-05-05T03:32:17.236Z,16.81
2023-05-05T03:33:21.033Z,16.80
2023-05-05T03:34:23.520Z,16.81
2023-05-05T03:35:27.065Z,16.79
2023-05-05T03:36:32.085Z,16.80
2023-05-05T03:37:34.449Z,16.80
2023-05-05T03:38:37.822Z,16.78
2023-05-05T03:39:40.218Z,16.78
2023-05-05T03:40:44.849Z,16.79
2023-05-05T03:41:47.435Z,16.78
2023-05-05T03:42:50.917Z,16.78
2023-05-05T03:43:53.514Z,16.78
2023-05-05T03:44:57.322Z,16.75
2023-05-05T03:45:59.675Z,16.77
2023-05-05T03:47:03.011Z,16.76
2023-05-05T03:48:06.180Z,16.74
2023-05-05T03:49:09.909Z,16.70
2023-05-05T03:50:12.415Z,16.69
2023-05-05T03:51:15.786Z,16.66
2023-05-05T03:52:19.723Z,16.63
2023-05-05T03:53:23.211Z,16.61
2023-05-05T03:54:25.742Z,16.61
2023-05-05T03:55:29.482Z,16.59
2023-05-05T03:56:31.932Z,16.56
2023-05-05T03:57:35.489Z,16.52
2023-05-05T03:58:37.852Z,16.54
2023-05-05T03:59:41.136Z,16.54
2023-05-05T04:00:43.482Z,16.55
2023-05-05T04:01:49.119Z,16.57
2023-05-05T04:02:51.544Z,16.55
2023-05-05T04:03:55.434Z,16.56
2023-05-05T04:04:58.492Z,16.54
2023-05-05T04:06:01.868Z,16.55
2023-05-05T04:07:04.700Z,16.55
2023-05-05T04:08:09.334Z,16.54
2023-05-05T04:09:12.628Z,16.57
2023-05-05T04:10:15.974Z,16.58
2023-05-05T04:11:18.378Z,16.58
2023-05-05T04:12:21.668Z,16.59
2023-05-05T04:13:24.248Z,16.59
2023-05-05T04:14:27.662Z,16.60
2023-05-05T04:15:30.287Z,16.59
2023-05-05T04:16:33.641Z,16.54
2023-05-05T04:17:36.182Z,16.49
2023-05-05T04:18:39.941Z,16.42
2023-05-05T04:19:42.684Z,16.33
2023-05-05T04:20:46.871Z,16.29
2023-05-05T04:21:49.380Z,16.25
2023-05-05T04:22:53.015Z,16.23
2023-05-05T04:23:57.778Z,16.24
2023-05-05T04:25:01.386Z,16.22
2023-05-05T04:26:03.760Z,16.18
2023-05-05T04:27:07.162Z,16.17
2023-05-05T04:28:09.483Z,16.17
2023-05-05T04:29:13.346Z,16.17
2023-05-05T04:30:15.802Z,16.20
2023-05-05T04:31:19.289Z,16.24
2023-05-05T04:32:21.898Z,16.32
2023-05-05T04:33:25.955Z,16.38
2023-05-05T04:34:28.315Z,16.47
2023-05-05T04:35:31.751Z,16.49
2023-05-05T04:36:34.641Z,16.54
2023-05-05T04:37:37.957Z,16.55
2023-05-05T04:38:40.344Z,16.58
2023-05-05T04:39:45.064Z,16.62
2023-05-05T04:40:47.766Z,16.68
2023-05-05T04:41:51.127Z,16.70
2023-05-05T04:42:53.966Z,16.69
2023-05-05T04:43:57.348Z,16.70
2023-05-05T04:44:59.759Z,16.71
2023-05-05T04:46:03.395Z,16.73
2023-05-05T04:47:05.909Z,16.77
2023-05-05T04:48:09.301Z,16.81
2023-05-05T04:49:11.744Z,16.85
2023-05-05T04:50:15.250Z,16.88
2023-05-05T04:51:18.073Z,16.95
2023-05-05T04:52:21.432Z,17.09
2023-05-05T04:53:23.745Z,17.25
2023-05-05T04:54:27.181Z,17.42
2023-05-05T04:55:30.852Z,17.61
2023-05-05T04:56:34.253Z,17.83
2023-05-05T04:57:36.666Z,18.10
2023-05-05T04:58:40.012Z,18.38
2023-05-05T04:59:42.806Z,18.67
2023-05-05T05:00:46.390Z,18.95
2023-05-05T05:01:50.390Z,19.25
2023-05-05T05:02:53.827Z,19.53
2023-05-05T05:03:56.557Z,19.81
2023-05-05T05:05:00.181Z,20.06
2023-05-05T05:06:02.626Z,20.33
2023-05-05T05:07:05.984Z,20.53
2023-05-05T05:08:08.374Z,20.74
2023-05-05T05:09:11.866Z,20.96
2023-05-05T05:10:14.847Z,21.18
2023-05-05T05:11:20.073Z,21.39
2023-05-05T05:12:22.526Z,21.55
2023-05-05T05:13:25.967Z,21.68
2023-05-05T05:14:28.826Z,21.79
2023-05-05T05:15:32.152Z,21.95
2023-05-05T05:16:34.800Z,22.10
2023-05-05T05:17:38.242Z,22.28
2023-05-05T05:18:40.986Z,22.45
2023-05-05T05:19:44.315Z,22.57
2023-05-05T05:20:46.694Z,22.70
2023-05-05T05:21:50.364Z,22.83
2023-05-05T05:22:53.156Z,22.95
2023-05-05T05:23:56.428Z,23.06
2023-05-05T05:24:58.926Z,23.21
2023-05-05T05:26:02.928Z,23.37
2023-05-05T05:27:10.173Z,23.56
2023-05-05T05:28:13.770Z,23.77
2023-05-05T05:29:16.207Z,23.89
2023-05-05T05:30:19.672Z,23.94
2023-05-05T05:31:22.106Z,23.89
2023-05-05T05:32:25.655Z,23.93
2023-05-05T05:33:28.577Z,24.05
2023-05-05T05:34:31.968Z,24.19
2023-05-05T05:35:34.369Z,24.29
2023-05-05T05:36:37.756Z,24.42
2023-05-05T05:37:40.099Z,24.57
2023-05-05T05:38:43.498Z,24.71
2023-05-05T05:39:51.794Z,24.87
2023-05-05T05:40:56.886Z,25.03
2023-05-05T05:42:00.309Z,25.09
2023-05-05T05:43:04.301Z,25.18
2023-05-05T05:44:07.857Z,25.27
2023-05-05T05:45:10.889Z,25.32
2023-05-05T05:46:14.373Z,25.28
2023-05-05T05:47:16.917Z,25.21
2023-05-05T05:48:21.496Z,25.12
2023-05-05T05:49:24.031Z,25.13
2023-05-05T05:50:28.777Z,25.13
2023-05-05T05:51:31.622Z,25.18
2023-05-05T05:52:36.306Z,25.27
2023-05-05T05:53:38.780Z,25.34
2023-05-05T05:54:42.561Z,25.40
2023-05-05T05:55:51.776Z,25.51
2023-05-05T05:56:55.079Z,25.67
2023-05-05T05:57:57.572Z,25.87
2023-05-05T05:59:04.703Z,25.96
2023-05-05T06:00:08.491Z,26.01
2023-05-05T06:01:12.549Z,26.10
2023-05-05T06:02:14.939Z,26.21
2023-05-05T06:03:18.556Z,26.28
2023-05-05T06:04:21.192Z,26.39
2023-05-05T06:05:24.537Z,26.48
2023-05-05T06:06:27.964Z,26.59
2023-05-05T06:07:31.265Z,26.71
2023-05-05T06:08:33.754Z,26.85
2023-05-05T06:09:37.480Z,27.00
2023-05-05T06:10:40.135Z,27.12
2023-05-05T06:11:43.492Z,27.22
2023-05-05T06:12:46.363Z,27.36
2023-05-05T06:13:49.994Z,27.46
2023-05-05T06:14:54.004Z,27.56
2023-05-05T06:15:57.356Z,27.73
2023-05-05T06:16:59.985Z,27.85
2023-05-05T06:18:03.267Z,27.90
2023-05-05T06:19:09.566Z,27.81
2023-05-05T06:20:14.188Z,27.61
2023-05-05T06:21:17.616Z,27.46
2023-05-05T06:22:20.086Z,27.38
2023-05-05T06:23:23.522Z,27.24
2023-05-05T06:24:25.958Z,27.08
2023-05-05T06:25:29.348Z,26.98
2023-05-05T06:26:32.653Z,26.91
2023-05-05T06:27:35.347Z,26.85
2023-05-05T06:28:39.483Z,26.87
2023-05-05T06:29:41.960Z,26.98
2023-05-05T06:30:46.608Z,27.07
2023-05-05T06:31:49.966Z,27.14
2023-05-05T06:32:54.371Z,27.34
2023-05-05T06:33:57.866Z,27.61
2023-05-05T06:35:00.209Z,27.92
2023-05-05T06:36:03.545Z,28.25
2023-05-05T06:37:06.688Z,28.47
2023-05-05T06:38:10.878Z,28.64
2023-05-05T06:39:16.018Z,28.80
2023-05-05T06:40:19.237Z,28.98
2023-05-05T06:41:22.642Z,29.16
2023-05-05T06:42:25.120Z,29.33
2023-05-05T06:43:30.115Z,29.45
2023-05-05T06:44:35.007Z,29.56
2023-05-05T06:45:37.508Z,29.69
2023-05-05T06:46:43.823Z,29.78
2023-05-05T06:47:46.392Z,29.81
2023-05-05T06:48:50.306Z,29.89
2023-05-05T06:49:53.066Z,30.08
2023-05-05T06:50:57.893Z,30.27
2023-05-05T06:52:00.312Z,30.45
2023-05-05T06:53:03.965Z,30.65
2023-05-05T06:54:06.732Z,30.90
2023-05-05T06:55:10.939Z,31.15
2023-05-05T06:56:13.343Z,31.42
2023-05-05T06:57:16.695Z,31.67
2023-05-05T06:58:19.729Z,31.82
2023-05-05T06:59:23.003Z,31.90
2023-05-05T07:00:25.636Z,31.94
2023-05-05T07:01:34.614Z,31.98
2023-05-05T07:02:38.614Z,32.10
2023-05-05T07:03:42.287Z,32.30
2023-05-05T07:04:44.916Z,32.55
2023-05-05T07:05:48.244Z,32.78
2023-05-05T07:06:50.810Z,32.96
2023-05-05T07:07:54.341Z,33.07
2023-05-05T07:08:58.054Z,33.19
2023-05-05T07:10:00.509Z,33.32
2023-05-05T07:11:03.945Z,33.47
2023-05-05T07:12:06.623Z,33.63
2023-05-05T07:13:10.019Z,33.76
2023-05-05T07:14:12.646Z,33.87
2023-05-05T07:15:26.904Z,33.95
2023-05-05T07:16:34.903Z,34.01
2023-05-05T07:17:38.731Z,34.08
2023-05-05T07:18:42.291Z,34.19
2023-05-05T07:19:45.202Z,34.32
2023-05-05T07:20:48.803Z,34.38
2023-05-05T07:21:52.113Z,34.41
2023-05-05T07:22:55.476Z,34.52
2023-05-05T07:23:57.897Z,34.66
2023-05-05T07:25:01.269Z,34.76
2023-05-05T07:26:04.799Z,34.82
2023-05-05T07:27:07.869Z,34.92
2023-05-05T07:28:11.422Z,35.04
2023-05-05T07:29:14.057Z,35.18
2023-05-05T07:30:18.993Z,35.25
2023-05-05T07:31:22.199Z,35.32
2023-05-05T07:32:26.056Z,35.47
2023-05-05T07:33:30.867Z,35.61
2023-05-05T07:34:35.128Z,35.78
2023-05-05T07:35:39.324Z,35.97
2023-05-05T07:36:43.808Z,36.17
2023-05-05T07:37:46.363Z,36.30
2023-05-05T07:38:50.152Z,36.43
2023-05-05T07:39:52.665Z,36.54
2023-05-05T07:40:56.011Z,36.64
2023-05-05T07:41:59.552Z,36.72
2023-05-05T07:43:01.980Z,36.76
2023-05-05T07:44:05.634Z,36.83
2023-05-05T07:45:09.558Z,37.00
2023-05-05T07:46:13.914Z,37.20
2023-05-05T07:47:17.349Z,37.40
2023-05-05T07:48:19.751Z,37.58
2023-05-05T07:49:24.875Z,37.75
2023-05-05T07:50:27.456Z,37.84
2023-05-05T07:51:33.276Z,37.97
2023-05-05T07:52:48.352Z,38.12
2023-05-05T07:53:57.188Z,38.31
2023-05-05T07:54:59.637Z,38.45
2023-05-05T07:56:02.947Z,38.55
2023-05-05T07:57:06.296Z,38.55
2023-05-05T07:58:11.251Z,38.58
2023-05-05T07:59:14.688Z,38.62
2023-05-05T08:00:19.603Z,38.63
2023-05-05T08:01:24.848Z,38.54
2023-05-05T08:02:27.256Z,38.51
2023-05-05T08:03:31.326Z,38.52
2023-05-05T08:04:35.409Z,38.54
2023-05-05T08:05:39.446Z,38.55
2023-05-05T08:06:42.059Z,38.52
2023-05-05T08:07:45.763Z,38.48
2023-05-05T08:08:49.344Z,38.51
2023-05-05T08:09:52.766Z,38.58
2023-05-05T08:10:55.177Z,38.70
2023-05-05T08:11:58.586Z,38.76
2023-05-05T08:13:01.955Z,38.86
2023-05-05T08:14:04.406Z,39.01
2023-05-05T08:15:10.465Z,39.14
2023-05-05T08:16:14.404Z,39.23
2023-05-05T08:17:20.177Z,39.33
2023-05-05T08:18:24.568Z,39.46
2023-05-05T08:19:29.486Z,39.55
2023-05-05T08:20:34.541Z,39.57
2023-05-05T08:21:37.120Z,39.51
2023-05-05T08:22:40.448Z,39.37
2023-05-05T08:23:43.792Z,39.29
2023-05-05T08:24:46.444Z,39.37
2023-05-05T08:25:49.906Z,39.46
2023-05-05T08:26:53.376Z,39.63
2023-05-05T08:27:56.932Z,39.77
2023-05-05T08:29:00.921Z,39.87
2023-05-05T08:30:04.256Z,40.02
2023-05-05T08:31:08.112Z,40.20
2023-05-05T08:32:10.820Z,40.37
2023-05-05T08:33:14.405Z,40.45
2023-05-05T08:34:17.866Z,40.35
2023-05-05T08:35:20.518Z,40.29
2023-05-05T08:36:25.274Z,40.27
2023-05-05T08:37:28.148Z,40.26
2023-05-05T08:38:31.534Z,40.20
2023-05-05T08:39:34.961Z,40.07
2023-05-05T08:40:38.551Z,39.87
2023-05-05T08:41:41.995Z,39.73
2023-05-05T08:42:45.783Z,39.65
2023-05-05T08:43:50.948Z,39.61
2023-05-05T08:44:53.865Z,39.62
2023-05-05T08:45:58.155Z,39.68
2023-05-05T08:47:02.325Z,39.72
2023-05-05T08:48:06.927Z,39.77
2023-05-05T08:49:16.933Z,39.85
2023-05-05T08:50:22.818Z,39.91
2023-05-05T08:51:32.373Z,39.97
2023-05-05T08:52:40.450Z,39.99
2023-05-05T08:53:53.233Z,40.02
2023-05-05T08:55:00.433Z,40.05
2023-05-05T08:56:05.847Z,40.09
2023-05-05T08:57:11.727Z,40.09
2023-05-05T08:58:15.801Z,40.09
2023-05-05T08:59:24.247Z,39.99
2023-05-05T09:00:29.021Z,39.87
2023-05-05T09:01:35.325Z,39.79
2023-05-05T09:02:38.687Z,39.74
2023-05-05T09:03:42.342Z,39.68
2023-05-05T09:04:45.948Z,39.58
2023-05-05T09:05:49.866Z,39.43
2023-05-05T09:06:54.580Z,39.16
2023-05-05T09:07:57.210Z,38.94
2023-05-05T09:09:02.855Z,38.84
2023-05-05T09:10:05.965Z,38.75
2023-05-05T09:11:09.287Z,38.68
2023-05-05T09:12:12.296Z,38.67
2023-05-05T09:13:15.917Z,38.72
2023-05-05T09:14:18.510Z,38.76
2023-05-05T09:15:21.908Z,38.82
2023-05-05T09:16:25.170Z,38.89
2023-05-05T09:17:28.223Z,38.97
2023-05-05T09:18:31.669Z,38.98
2023-05-05T09:19:34.192Z,38.96
2023-05-05T09:20:38.899Z,38.96
2023-05-05T09:21:49.146Z,38.82
2023-05-05T09:22:53.816Z,38.66
2023-05-05T09:24:09.079Z,38.35
2023-05-05T09:25:14.304Z,38.14
2023-05-05T09:26:17.597Z,38.04
2023-05-05T09:27:22.837Z,38.00
2023-05-05T09:28:27.431Z,37.99
2023-05-05T09:29:30.010Z,37.96
2023-05-05T09:30:33.532Z,37.94
2023-05-05T09:31:37.193Z,37.80
2023-05-05T09:32:48.404Z,37.55
2023-05-05T09:33:51.230Z,37.39
2023-05-05T09:35:01.616Z,37.24
2023-05-05T09:36:05.207Z,37.15
2023-05-05T09:37:09.021Z,37.05
2023-05-05T09:38:13.317Z,36.95
2023-05-05T09:39:19.082Z,36.85
2023-05-05T09:40:22.324Z,36.69
2023-05-05T09:41:39.125Z,36.44
2023-05-05T09:42:43.100Z,36.39
2023-05-05T09:43:52.108Z,36.12
2023-05-05T09:44:57.915Z,35.90
2023-05-05T09:46:08.820Z,35.52
2023-05-05T09:47:21.969Z,35.29
2023-05-05T09:48:33.461Z,35.10
2023-05-05T09:49:37.524Z,34.88
2023-05-05T09:50:44.996Z,34.63
2023-05-05T09:51:48.336Z,34.45
2023-05-05T09:52:58.377Z,34.19
2023-05-05T09:54:03.061Z,33.95
2023-05-05T09:55:05.970Z,33.71
2023-05-05T09:56:10.498Z,33.46
2023-05-05T09:57:27.517Z,33.11
2023-05-05T09:58:32.083Z,32.93
2023-05-05T09:59:35.828Z,32.72
2023-05-05T10:00:39.156Z,32.63
2023-05-05T10:01:44.021Z,32.63
2023-05-05T10:02:47.172Z,32.66
2023-05-05T10:03:53.236Z,32.53
2023-05-05T10:05:07.007Z,32.23
2023-05-05T10:06:11.454Z,31.99
2023-05-05T10:07:25.221Z,31.64
2023-05-05T10:08:30.528Z,31.35
2023-05-05T10:09:35.324Z,31.19
2023-05-05T10:10:44.907Z,31.09
2023-05-05T10:11:48.694Z,30.93
2023-05-05T10:12:51.490Z,30.73
2023-05-05T10:13:55.153Z,30.57
2023-05-05T10:14:58.805Z,30.43
2023-05-05T10:16:04.491Z,30.37
2023-05-05T10:17:10.463Z,30.36
2023-05-05T10:18:15.888Z,30.31
2023-05-05T10:19:21.895Z,30.13
2023-05-05T10:20:26.177Z,29.92
2023-05-05T10:21:34.900Z,29.72
2023-05-05T10:22:40.661Z,29.54
2023-05-05T10:23:50.394Z,29.33
2023-05-05T10:25:03.686Z,29.19
2023-05-05T10:26:09.443Z,29.10
2023-05-05T10:27:15.614Z,29.02
2023-05-05T10:28:32.855Z,28.88
2023-05-05T10:29:42.437Z,28.71
2023-05-05T10:30:50.638Z,28.59
2023-05-05T10:32:00.297Z,28.51
2023-05-05T10:33:30.403Z,28.39
2023-05-05T10:34:42.016Z,28.26
2023-05-05T10:35:49.508Z,28.18
2023-05-05T10:36:53.690Z,28.09
2023-05-05T10:37:59.421Z,27.99
2023-05-05T10:39:06.831Z,27.86
2023-05-05T10:40:12.989Z,27.74
2023-05-05T10:41:17.788Z,27.68
2023-05-05T10:42:21.171Z,27.59
2023-05-05T10:43:25.692Z,27.55
2023-05-05T10:44:31.933Z,27.46
2023-05-05T10:45:35.893Z,27.38
2023-05-05T10:46:40.732Z,27.35
2023-05-05T10:47:45.441Z,27.29
2023-05-05T10:48:56.735Z,27.20
2023-05-05T10:50:08.770Z,27.13
2023-05-05T10:51:40.141Z,27.08
2023-05-05T10:52:53.753Z,27.08
2023-05-05T10:54:01.064Z,27.12
2023-05-05T10:55:14.279Z,27.13
2023-05-05T10:56:25.561Z,27.16
2023-05-05T10:57:30.525Z,27.13
2023-05-05T10:58:43.640Z,27.06
2023-05-05T10:59:50.913Z,27.01
2023-05-05T11:00:53.673Z,27.00
2023-05-05T11:01:58.712Z,26.94
2023-05-05T11:03:22.648Z,26.88
2023-05-05T11:04:26.083Z,26.85
2023-05-05T11:05:28.540Z,26.79
2023-05-05T11:06:32.946Z,26.74
2023-05-05T11:07:35.711Z,26.71
2023-05-05T11:08:40.753Z,26.69
2023-05-05T11:09:55.745Z,26.65
2023-05-05T11:11:01.188Z,26.64
2023-05-05T11:12:06.223Z,26.63
2023-05-05T11:13:21.336Z,26.61
2023-05-05T11:14:24.960Z,26.58
2023-05-05T11:15:37.940Z,26.54
2023-05-05T11:16:48.272Z,26.50
2023-05-05T11:17:51.311Z,26.47
2023-05-05T11:18:54.737Z,26.47
2023-05-05T11:19:57.123Z,26.45
2023-05-05T11:21:19.655Z,26.42
2023-05-05T11:22:22.122Z,26.40
2023-05-05T11:23:25.618Z,26.44
2023-05-05T11:24:30.466Z,26.45
2023-05-05T11:25:48.007Z,26.39
2023-05-05T11:26:53.208Z,26.37
2023-05-05T11:28:08.865Z,26.32
2023-05-05T11:29:12.331Z,26.29
2023-05-05T11:30:15.289Z,26.28
2023-05-05T11:31:20.377Z,26.28
2023-05-05T11:32:25.143Z,26.29
2023-05-05T11:33:29.573Z,26.31
2023-05-05T11:34:32.912Z,26.31
2023-05-05T11:36:01.853Z,26.22
2023-05-05T11:37:09.279Z,26.22
2023-05-05T11:38:15.080Z,26.22
2023-05-05T11:39:25.247Z,26.20
2023-05-05T11:40:36.832Z,26.19
2023-05-05T11:42:06.551Z,26.16
2023-05-05T11:43:13.064Z,26.12
2023-05-05T11:44:17.746Z,26.16
2023-05-05T11:45:22.823Z,26.16
2023-05-05T11:46:25.276Z,26.18
2023-05-05T11:47:32.812Z,26.19
2023-05-05T11:48:45.177Z,26.20
2023-05-05T11:49:48.959Z,26.26
2023-05-05T11:50:52.724Z,26.33
2023-05-05T11:51:58.510Z,26.37
2023-05-05T11:53:02.770Z,26.36
2023-05-05T11:54:05.586Z,26.33
2023-05-05T11:55:09.709Z,26.29
2023-05-05T11:56:19.040Z,26.25
2023-05-05T11:57:29.773Z,26.21
2023-05-05T11:58:33.151Z,26.21
2023-05-05T11:59:37.668Z,26.20
2023-05-05T12:00:41.047Z,26.20
2023-05-05T12:01:44.390Z,26.19
2023-05-05T12:02:48.162Z,26.18
2023-05-05T12:03:51.916Z,26.19
2023-05-05T12:04:55.417Z,26.19
2023-05-05T12:05:58.865Z,26.20
2023-05-05T12:07:01.276Z,26.21
2023-05-05T12:08:04.770Z,26.21
2023-05-05T12:09:08.925Z,26.22
2023-05-05T12:10:12.620Z,26.20
2023-05-05T12:11:15.276Z,26.24
2023-05-05T12:12:20.312Z,26.26
2023-05-05T12:13:25.255Z,26.35
2023-05-05T12:14:27.757Z,26.41
2023-05-05T12:15:32.491Z,26.46
2023-05-05T12:16:35.060Z,26.47
2023-05-05T12:17:41.113Z,26.46
2023-05-05T12:18:43.671Z,26.44
2023-05-05T12:19:49.466Z,26.44
2023-05-05T12:20:53.081Z,26.44
2023-05-05T12:21:55.457Z,26.47
2023-05-05T12:23:02.036Z,26.46
2023-05-05T12:24:05.109Z,26.46
2023-05-05T12:25:10.208Z,26.48
2023-05-05T12:26:25.654Z,26.39
2023-05-05T12:27:29.844Z,26.41
2023-05-05T12:28:46.904Z,26.39
2023-05-05T12:29:50.749Z,26.38
2023-05-05T12:31:00.316Z,26.37
2023-05-05T12:32:03.735Z,26.37
2023-05-05T12:33:08.400Z,26.38
2023-05-05T12:34:12.384Z,26.39
2023-05-05T12:35:17.154Z,26.39
2023-05-05T12:36:19.685Z,26.40
2023-05-05T12:37:24.478Z,26.40
2023-05-05T12:38:26.917Z,26.42
2023-05-05T12:39:36.430Z,26.46
2023-05-05T12:40:47.681Z,26.47
2023-05-05T12:41:51.466Z,26.50
2023-05-05T12:42:53.901Z,26.52
2023-05-05T12:43:59.484Z,26.51
2023-05-05T12:45:03.132Z,26.52
2023-05-05T12:46:07.997Z,26.53
2023-05-05T12:47:12.750Z,26.53
2023-05-05T12:48:24.667Z,26.49
2023-05-05T12:49:28.197Z,26.49
2023-05-05T12:50:32.839Z,26.51
2023-05-05T12:51:36.365Z,26.50
2023-05-05T12:52:44.236Z,26.50
2023-05-05T12:53:49.254Z,26.52
2023-05-05T12:54:54.969Z,26.58
2023-05-05T12:55:59.805Z,26.65
2023-05-05T12:57:12.848Z,26.73
2023-05-05T12:58:15.258Z,26.81
2023-05-05T12:59:31.926Z,26.81
2023-05-05T13:00:34.631Z,26.83
2023-05-05T13:01:49.197Z,26.88
2023-05-05T13:02:53.265Z,26.87
2023-05-05T13:04:06.566Z,26.85
2023-05-05T13:05:10.704Z,26.87
2023-05-05T13:06:20.781Z,26.89
2023-05-05T13:07:24.104Z,26.90
2023-05-05T13:08:46.119Z,26.88
2023-05-05T13:09:51.429Z,26.88
2023-05-05T13:10:57.702Z,26.88
2023-05-05T13:12:03.090Z,26.86
2023-05-05T13:13:06.052Z,26.84
2023-05-05T13:14:09.752Z,26.85
2023-05-05T13:15:14.692Z,26.84
2023-05-05T13:16:18.207Z,26.84
2023-05-05T13:17:21.805Z,26.85
2023-05-05T13:18:24.284Z,26.88
2023-05-05T13:19:27.844Z,26.89
2023-05-05T13:20:31.213Z,26.90
2023-05-05T13:21:33.740Z,26.91
2023-05-05T13:22:37.451Z,26.93
2023-05-05T13:23:43.269Z,26.95
2023-05-05T13:24:52.366Z,26.94
2023-05-05T13:25:57.246Z,26.93
2023-05-05T13:27:00.883Z,26.95
2023-05-05T13:28:04.686Z,26.98
2023-05-05T13:29:07.071Z,27.00
2023-05-05T13:30:11.469Z,27.03
2023-05-05T13:31:15.263Z,27.05
2023-05-05T13:32:18.650Z,27.08
2023-05-05T13:33:21.103Z,27.09
2023-05-05T13:34:24.669Z,27.11
2023-05-05T13:35:28.580Z,27.13
2023-05-05T13:36:31.377Z,27.10
2023-05-05T13:37:34.859Z,27.09
2023-05-05T13:38:37.480Z,27.08
2023-05-05T13:39:41.139Z,27.05
2023-05-05T13:40:43.581Z,27.04
2023-05-05T13:41:47.000Z,27.01
2023-05-05T13:42:49.746Z,26.99
2023-05-05T13:43:53.252Z,26.96
2023-05-05T13:44:56.663Z,26.96
2023-05-05T13:46:12.270Z,26.93
2023-05-05T13:47:21.294Z,26.91
2023-05-05T13:48:23.787Z,26.92
2023-05-05T13:49:27.218Z,26.92
2023-05-05T13:50:29.688Z,26.92
2023-05-05T13:51:34.915Z,26.94
2023-05-05T13:52:38.534Z,26.95
2023-05-05T13:53:43.852Z,26.97
2023-05-05T13:54:47.271Z,26.96
2023-05-05T13:55:49.801Z,26.94
2023-05-05T13:56:53.678Z,26.97
2023-05-05T13:57:56.443Z,26.98
2023-05-05T13:58:59.818Z,26.99
2023-05-05T14:00:03.130Z,26.99
2023-05-05T14:01:09.738Z,26.98
2023-05-05T14:02:13.131Z,26.98
2023-05-05T14:03:17.110Z,26.98